Terminal Aerodrome Forecast
Issued by NWS Shreveport, LA

Home | Current Version | Previous Version | Text Only | Print | Product List | Glossary On
Versions: 1 2 3 4 5 6 7 8 9 10 11 12 13 14 15 16 17 18 19
000
FTUS44 KSHV 262327
TAFLFK
TAF
KLFK 262327Z 2700/2724 VRB03KT P6SM FEW060 SCT250
     FM270500 00000KT 5SM HZ SCT120 SCT250
      TEMPO 2710/2714 3SM BR SCT015
     FM271400 VRB05KT P6SM VCTS BKN015CB BKN120 BKN250
     FM271600 VRB06KT P6SM VCTS BKN025CB BKN120 BKN250
     FM271800 VRB06KT P6SM VCTS BKN035CB OVC100=

USA.gov is the U.S. government's official web portal to all federal, state and local government web resources and services.